メインページ
METAR-TAF:

METAR-TAF

空港 :

Mfuwe, ザンビア

緯度: 13-15-32S, 経度: 031-56-12E, 海抜: 573m

METAR: 見つかりません

時間: 12:08 (10:08 UTC)

予報

当レポートは30時間8分前の04:00(UTC)に作成
予報は27日の 06時(UTC)から 28日の 12時(UTC)まで有効
変向風 3kt
高度800ftの雲は散在している
高度9000ftの千切れ雲あり
確率 30% :
27日の 06時(UTC)から 27日の 08時(UTC)まで一時的に
視程: 9000m
小雨
27日の 09時(UTC)から 27日の 11時(UTC)まで徐々に
の風 5kt
高度3000ftの雲はほとんどない, 積乱雲.
高度3500ftの千切れ雲あり
確率 30% :
27日の 12時(UTC)から 27日の 15時(UTC)まで一時的に
視程: 9000m
激しい雷雨, 小雨,

TAF: FLMF 270400Z 2706/2812 VRB03KT SCT008 BKN090 PROB30 TEMPO 2706/2708 9000 -RA BECMG 2709/2711 18005KT FEW030CB BKN035 PROB30 TEMPO 2712/2715 9000 -TSRA

4,000以上の空港の気象観測と天気予報(METAR報とTAF報)

利用可能な観測所は地図上に黄色い丸と赤い丸で示す。

丸の上にカーソルを重ねると観測所名を参照できる。

次にクリックすると気象観測と天気予報を参照できる。

マップの切り替え:黒色「×」印の緑ボタンをクリックして拡大、「-」印の緑ボタンをクリックして縮小、緑色の三角印をクリックして隣りの地図に切り替え


METAR-TAF: